25 | 01 | 2020

Daten Vortag

Klimadaten von 10m Höhe gemessen, Station2

Datum / Zeit Intervall min Luftfeuchte % Temperatur °C absolut Luftdruck hPa Wind m/s Windbö m/s Richtung Relative Luftdruck hPa Taupunkt °C Windchill °C Niederschlag mm
24-01-2020 00:09 5 75 5.2 1024.9 3.6 5.0 SW 1026.3 1.1 5.2 0.0
24-01-2020 00:11 5 76 5.0 1024.8 3.6 5.0 W 1026.2 1.1 5.0 0.0
24-01-2020 00:16 5 76 5.0 1024.8 5.0 6.1 S 1026.2 1.1 5.0 0.0
24-01-2020 00:21 5 76 4.9 1024.6 2.5 5.0 NW 1026.0 1.0 4.9 0.0
24-01-2020 00:26 5 76 4.8 1024.7 6.1 9.7 SW 1026.1 0.9 4.8 0.0
24-01-2020 00:31 5 76 4.8 1024.5 5.0 7.2 SW 1025.9 0.9 4.8 0.0
24-01-2020 00:36 5 76 4.6 1024.5 3.6 6.1 SW 1025.9 0.7 4.6 0.0
24-01-2020 00:41 5 76 4.4 1024.4 3.6 7.2 S 1025.8 0.5 4.4 0.0
24-01-2020 00:46 5 76 4.3 1024.2 3.6 6.1 W 1025.6 0.4 4.3 0.0
24-01-2020 00:51 5 76 4.3 1024.2 3.6 5.0 W 1025.6 0.4 4.3 0.0
24-01-2020 00:56 5 77 4.2 1024.3 3.6 5.0 SW 1025.7 0.5 4.2 0.0
24-01-2020 01:01 5 77 4.1 1024.0 6.1 7.2 W 1025.4 0.4 4.1 0.0
24-01-2020 01:06 5 77 4.1 1024.0 3.6 5.0 SW 1025.4 0.4 4.1 0.0
24-01-2020 01:11 5 77 4.0 1023.9 5.0 6.1 SW 1025.3 0.3 4.0 0.0
24-01-2020 01:16 5 77 3.9 1023.9 6.1 8.6 SW 1025.3 0.2 3.9 0.0
24-01-2020 01:21 5 77 3.9 1023.6 5.0 7.2 S 1025.0 0.2 3.9 0.0
24-01-2020 01:26 5 77 3.8 1023.4 5.0 6.1 SW 1024.8 0.1 3.8 0.0
24-01-2020 01:31 5 77 3.7 1023.5 2.5 3.6 W 1024.9 0.0 3.7 0.0
24-01-2020 01:36 5 77 3.6 1023.5 3.6 5.0 W 1024.9 0.0 3.6 0.0
24-01-2020 01:41 5 78 3.5 1023.4 2.5 3.6 SW 1024.8 0.0 3.5 0.0
24-01-2020 01:46 5 78 3.5 1023.4 3.6 5.0 SW 1024.8 0.0 3.5 0.0
24-01-2020 01:51 5 78 3.5 1023.4 3.6 5.0 SSW 1024.8 0.0 3.5 0.0
24-01-2020 01:56 5 79 3.4 1023.4 2.5 3.6 SW 1024.8 0.1 3.4 0.0
24-01-2020 02:01 5 79 3.5 1023.2 3.6 5.0 SW 1024.6 0.2 3.5 0.0
24-01-2020 02:06 5 79 3.5 1023.0 3.6 5.0 SW 1024.4 0.2 3.5 0.0
24-01-2020 02:11 5 79 3.7 1023.0 5.0 6.1 SW 1024.4 0.4 3.7 0.0
24-01-2020 02:16 5 79 3.7 1023.0 3.6 6.1 W 1024.4 0.4 3.7 0.0
24-01-2020 02:21 5 79 3.7 1023.0 3.6 5.0 SW 1024.4 0.4 3.7 0.0
24-01-2020 02:26 5 79 3.7 1022.9 7.2 8.6 W 1024.3 0.4 2.3 0.0
24-01-2020 02:31 5 79 3.7 1022.8 5.0 7.2 SW 1024.2 0.4 3.7 0.0
24-01-2020 02:36 5 79 3.7 1022.8 8.6 9.7 SW 1024.2 0.4 1.1 0.0
24-01-2020 02:41 5 79 3.7 1022.6 6.1 7.2 SW 1024.0 0.4 3.7 0.0
24-01-2020 02:46 5 79 3.7 1022.6 7.2 9.7 SSW 1024.0 0.4 2.3 0.0
24-01-2020 02:51 5 78 3.6 1022.5 7.2 11.2 W 1023.9 0.1 2.2 0.0
24-01-2020 02:56 5 78 3.5 1022.5 5.0 7.2 SWW 1023.9 0.0 3.5 0.0
24-01-2020 03:01 5 79 3.4 1022.4 11.2 13.3 S 1023.8 0.1 -0.8 0.0
24-01-2020 03:06 5 79 3.4 1022.4 5.0 8.6 SW 1023.8 0.1 3.4 0.0
24-01-2020 03:11 5 79 3.4 1022.5 6.1 8.6 SW 1023.9 0.1 3.4 0.0
24-01-2020 03:16 5 79 3.5 1022.4 3.6 5.0 SW 1023.8 0.2 3.5 0.0
24-01-2020 03:21 5 79 3.5 1022.1 8.6 11.2 SW 1023.5 0.2 0.9 0.0
24-01-2020 03:26 5 78 3.5 1022.0 7.2 9.7 S 1023.4 0.0 2.1 0.0
24-01-2020 03:31 5 78 3.4 1021.9 7.2 9.7 W 1023.3 -0.1 2.0 0.0
24-01-2020 03:36 5 78 3.4 1021.8 6.1 9.7 SW 1023.2 -0.1 3.4 0.0
24-01-2020 03:41 5 78 3.3 1021.7 7.2 8.6 SW 1023.1 -0.2 1.8 0.0
24-01-2020 03:46 5 78 3.3 1021.7 8.6 9.7 S 1023.1 -0.2 0.7 0.0
24-01-2020 03:51 5 78 3.3 1021.7 7.2 9.7 S 1023.1 -0.2 1.8 0.0
24-01-2020 03:56 5 78 3.2 1021.6 7.2 11.2 S 1023.0 -0.3 1.7 0.0
24-01-2020 04:01 5 78 3.2 1021.6 5.0 6.1 S 1023.0 -0.3 3.2 0.0
24-01-2020 04:06 5 78 3.2 1021.5 5.0 6.1 S 1022.9 -0.3 3.2 0.0
24-01-2020 04:11 5 78 3.1 1021.4 7.2 9.7 S 1022.8 -0.4 1.6 0.0
24-01-2020 04:16 5 78 3.1 1021.3 6.1 8.6 SW 1022.7 -0.4 3.1 0.0
24-01-2020 04:21 5 78 3.1 1021.4 6.1 8.6 W 1022.8 -0.4 3.1 0.0
24-01-2020 04:26 5 78 3.1 1021.3 3.6 6.1 SW 1022.7 -0.4 3.1 0.0
24-01-2020 04:31 5 78 3.1 1021.2 6.1 8.6 S 1022.6 -0.4 3.1 0.0
24-01-2020 04:36 5 78 3.1 1021.1 7.2 9.7 SW 1022.5 -0.4 1.6 0.0
24-01-2020 04:41 5 78 3.0 1021.2 5.0 6.1 SSW 1022.6 -0.5 3.0 0.0
24-01-2020 04:46 5 78 3.0 1021.2 5.0 6.1 W 1022.6 -0.5 3.0 0.0
24-01-2020 04:51 5 78 3.0 1021.2 3.6 5.0 SW 1022.6 -0.5 3.0 0.0
24-01-2020 04:56 5 78 2.9 1021.1 6.1 7.2 SW 1022.5 -0.6 2.9 0.0
24-01-2020 05:01 5 79 2.9 1021.0 3.6 6.1 SWW 1022.4 -0.4 2.9 0.0
24-01-2020 05:06 5 79 2.9 1020.9 3.6 6.1 SSW 1022.3 -0.4 2.9 0.0
24-01-2020 05:11 5 79 2.9 1020.8 3.6 5.0 W 1022.2 -0.4 2.9 0.0
24-01-2020 05:16 5 79 2.9 1021.0 5.0 6.1 SW 1022.4 -0.4 2.9 0.0
24-01-2020 05:21 5 79 2.8 1021.1 5.0 6.1 SWW 1022.5 -0.5 2.8 0.0
24-01-2020 05:26 5 79 2.8 1020.9 3.6 6.1 SW 1022.3 -0.5 2.8 0.0
24-01-2020 05:31 5 79 2.8 1020.9 3.6 5.0 SW 1022.3 -0.5 2.8 0.0
24-01-2020 05:36 5 79 2.8 1020.9 2.5 5.0 S 1022.3 -0.5 2.8 0.0
24-01-2020 05:41 5 79 2.8 1021.0 2.5 3.6 W 1022.4 -0.5 2.8 0.0
24-01-2020 05:46 5 79 2.7 1021.0 3.6 5.0 SW 1022.4 -0.6 2.7 0.0
24-01-2020 05:51 5 80 2.7 1020.9 6.1 7.2 SW 1022.3 -0.4 2.7 0.0
24-01-2020 05:56 5 80 2.6 1020.6 7.2 9.7 W 1022.0 -0.5 1.1 0.0
24-01-2020 06:01 5 80 2.6 1020.6 6.1 8.6 W 1022.0 -0.5 2.6 0.0
24-01-2020 06:06 5 80 2.6 1020.6 6.1 8.6 W 1022.0 -0.5 2.6 0.0
24-01-2020 06:11 5 80 2.4 1020.5 3.6 5.0 SW 1021.9 -0.7 2.4 0.0
24-01-2020 06:16 5 80 2.3 1020.5 6.1 7.2 SE 1021.9 -0.8 2.3 0.0
24-01-2020 06:21 5 80 2.2 1020.5 7.2 9.7 SW 1021.9 -0.9 0.7 0.0
24-01-2020 06:26 5 80 2.2 1020.3 5.0 6.1 S 1021.7 -0.9 2.2 0.0
24-01-2020 06:31 5 80 2.1 1020.3 5.0 7.2 S 1021.7 -1.0 2.1 0.0
24-01-2020 06:36 5 80 2.1 1020.4 8.6 11.2 S 1021.8 -1.0 -0.6 0.0
24-01-2020 06:41 5 80 2.1 1020.5 6.1 7.2 SW 1021.9 -1.0 2.1 0.0
24-01-2020 06:46 5 80 2.2 1020.3 8.6 11.2 S 1021.7 -0.9 -0.5 0.0
24-01-2020 06:51 5 80 2.2 1020.3 9.7 13.3 SW 1021.7 -0.9 -1.3 0.0
24-01-2020 06:56 5 80 2.2 1020.3 7.2 9.7 SW 1021.7 -0.9 0.7 0.0
24-01-2020 07:01 5 80 2.1 1020.5 6.1 9.7 W 1021.9 -1.0 2.1 0.0
24-01-2020 07:06 5 80 2.1 1020.6 6.1 9.7 SW 1022.0 -1.0 2.1 0.0
24-01-2020 07:11 5 80 2.2 1020.5 7.2 9.7 SWW 1021.9 -0.9 0.7 0.0
24-01-2020 07:16 5 80 2.2 1020.6 5.0 6.1 W 1022.0 -0.9 2.2 0.0
24-01-2020 07:21 5 80 2.2 1020.8 6.1 7.2 W 1022.2 -0.9 2.2 0.0
24-01-2020 07:26 5 81 2.2 1020.7 6.1 7.2 W 1022.1 -0.7 2.2 0.0
24-01-2020 07:31 5 81 2.2 1020.7 5.0 6.1 SWW 1022.1 -0.7 2.2 0.0
24-01-2020 07:36 5 81 2.2 1020.8 6.1 7.2 SW 1022.2 -0.7 2.2 0.0
24-01-2020 07:41 5 81 2.2 1020.7 5.0 7.2 W 1022.1 -0.7 2.2 0.0
24-01-2020 07:46 5 81 2.2 1020.7 7.2 9.7 W 1022.1 -0.7 0.7 0.0
24-01-2020 07:51 5 81 2.1 1020.7 6.1 8.6 W 1022.1 -0.8 2.1 0.0
24-01-2020 07:56 5 81 2.1 1020.7 3.6 5.0 W 1022.1 -0.8 2.1 0.0
24-01-2020 08:01 5 81 2.1 1020.7 5.0 6.1 SW 1022.1 -0.8 2.1 0.0
24-01-2020 08:06 5 81 2.1 1020.6 5.0 6.1 SW 1022.0 -0.8 2.1 0.0
24-01-2020 08:11 5 81 2.2 1020.5 8.6 11.2 NW 1021.9 -0.7 -0.5 0.0
24-01-2020 08:16 5 81 2.2 1020.7 8.6 9.7 SWW 1022.1 -0.7 -0.5 0.0
24-01-2020 08:21 5 81 2.2 1020.8 6.1 8.6 W 1022.2 -0.7 2.2 0.0
24-01-2020 08:26 5 81 2.2 1020.8 6.1 7.2 SWW 1022.2 -0.7 2.2 0.0
24-01-2020 08:31 5 81 2.2 1020.9 5.0 7.2 SW 1022.3 -0.7 2.2 0.0
24-01-2020 08:36 5 81 2.2 1020.9 6.1 8.6 W 1022.3 -0.7 2.2 0.0
24-01-2020 08:41 5 81 2.2 1020.9 7.2 8.6 W 1022.3 -0.7 0.7 0.0
24-01-2020 08:46 5 81 2.2 1021.0 5.0 6.1 NWW 1022.4 -0.7 2.2 0.0
24-01-2020 08:51 5 81 2.2 1020.9 7.2 8.6 W 1022.3 -0.7 0.7 0.0
24-01-2020 08:56 5 81 2.2 1021.0 7.2 11.2 SW 1022.4 -0.7 0.7 0.0
24-01-2020 09:01 5 81 2.2 1021.0 6.1 7.2 S 1022.4 -0.7 2.2 0.0
24-01-2020 09:06 5 81 2.3 1021.0 8.6 12.2 SW 1022.4 -0.6 -0.4 0.0
24-01-2020 09:11 5 81 2.3 1021.2 6.1 8.6 SW 1022.6 -0.6 2.3 0.0
24-01-2020 09:16 5 81 2.3 1021.1 6.1 8.6 SW 1022.5 -0.6 2.3 0.0
24-01-2020 09:21 5 81 2.3 1021.2 6.1 7.2 W 1022.6 -0.6 2.3 0.0
24-01-2020 09:26 5 81 2.4 1021.1 8.6 9.7 SW 1022.5 -0.5 -0.3 0.0
24-01-2020 09:31 5 82 2.4 1021.1 7.2 9.7 SW 1022.5 -0.4 0.9 0.0
24-01-2020 09:36 5 82 2.4 1021.1 6.1 8.6 W 1022.5 -0.4 2.4 0.0
24-01-2020 09:41 5 82 2.4 1021.1 2.5 5.0 SW 1022.5 -0.4 2.4 0.0
24-01-2020 09:46 5 82 2.4 1021.1 3.6 5.0 S 1022.5 -0.4 2.4 0.0
24-01-2020 09:51 5 82 2.4 1021.1 7.2 11.2 W 1022.5 -0.4 0.9 0.0
24-01-2020 09:56 5 82 2.4 1021.0 9.7 12.2 W 1022.4 -0.4 -1.0 0.0
24-01-2020 10:01 5 82 2.4 1020.9 9.7 12.2 SW 1022.3 -0.4 -1.0 0.0
24-01-2020 10:06 5 82 2.4 1020.7 9.7 12.2 SW 1022.1 -0.4 -1.0 0.0
24-01-2020 10:11 5 83 2.4 1020.7 7.2 11.2 SW 1022.1 -0.2 0.9 0.0
24-01-2020 10:16 5 83 2.4 1020.9 9.7 13.3 N 1022.3 -0.2 -1.0 0.0
24-01-2020 10:21 5 83 2.5 1020.7 9.7 12.2 SW 1022.1 -0.1 -0.9 0.0
24-01-2020 10:26 5 83 2.6 1020.7 8.6 11.2 W 1022.1 0.0 0.0 0.0
24-01-2020 10:31 5 83 2.7 1020.9 5.0 6.1 W 1022.3 0.1 2.7 0.0
24-01-2020 10:36 5 84 2.7 1021.1 7.2 9.7 W 1022.5 0.3 1.2 0.0
24-01-2020 10:41 5 84 2.7 1021.1 8.6 11.2 SSW 1022.5 0.3 0.1 0.0
24-01-2020 10:46 5 83 2.6 1021.0 7.2 9.7 W 1022.4 0.0 1.1 0.0
24-01-2020 10:51 5 83 2.6 1020.9 8.6 11.2 SW 1022.3 0.0 0.0 0.0
24-01-2020 10:56 5 83 2.5 1020.6 7.2 9.7 SW 1022.0 -0.1 1.0 0.0
24-01-2020 11:01 5 83 2.6 1020.6 9.7 13.3 W 1022.0 0.0 -0.8 0.0
24-01-2020 11:06 5 83 2.6 1020.5 9.7 12.2 SW 1021.9 0.0 -0.8 0.0
24-01-2020 11:11 5 84 2.7 1020.5 8.6 12.2 SW 1021.9 0.3 0.1 0.0
24-01-2020 11:16 5 84 2.8 1020.5 6.1 8.6 SW 1021.9 0.4 2.8 0.0
24-01-2020 11:21 5 84 2.9 1020.5 7.2 8.6 W 1021.9 0.5 1.4 0.0
24-01-2020 11:26 5 84 2.9 1020.3 6.1 7.2 SSW 1021.7 0.5 2.9 0.0
24-01-2020 11:31 5 84 2.9 1020.5 7.2 9.7 W 1021.9 0.5 1.4 0.0
24-01-2020 11:36 5 84 2.9 1020.4 6.1 8.6 SW 1021.8 0.5 2.9 0.0
24-01-2020 11:41 5 84 2.9 1020.5 7.2 8.6 SW 1021.9 0.5 1.4 0.0
24-01-2020 11:46 5 84 2.9 1020.5 7.2 8.6 SW 1021.9 0.5 1.4 0.0
24-01-2020 11:51 5 84 2.9 1020.5 6.1 7.2 SW 1021.9 0.5 2.9 0.0
24-01-2020 11:56 5 84 3.0 1020.6 7.2 9.7 W 1022.0 0.6 1.5 0.0
24-01-2020 12:01 5 84 3.0 1020.6 9.7 11.2 SW 1022.0 0.6 -0.4 0.0
24-01-2020 12:06 5 84 3.0 1020.5 9.7 11.2 SW 1021.9 0.6 -0.4 0.0
24-01-2020 12:11 5 84 3.0 1020.3 8.6 11.2 SSW 1021.7 0.6 0.4 0.0
24-01-2020 12:16 5 84 3.1 1020.3 6.1 8.6 W 1021.7 0.7 3.1 0.0
24-01-2020 12:21 5 84 3.0 1020.4 11.2 13.3 W 1021.8 0.6 -1.3 0.0
24-01-2020 12:26 5 84 3.1 1020.2 9.7 14.8 SW 1021.6 0.7 -0.3 0.0
24-01-2020 12:31 5 84 3.1 1020.1 9.7 13.3 SW 1021.5 0.7 -0.3 0.0
24-01-2020 12:36 5 84 3.2 1020.0 7.2 12.2 W 1021.4 0.8 1.7 0.0
24-01-2020 12:48 5 84 3.4 1019.9 8.6 11.2 SW 1021.3 1.0 0.8 0.0
24-01-2020 12:53 5 84 3.5 1019.8 7.2 11.2 SE 1021.2 1.1 2.1 0.0
24-01-2020 12:58 5 84 3.4 1019.6 9.7 12.2 SW 1021.0 1.0 0.1 0.0
24-01-2020 13:03 5 84 3.4 1019.6 8.6 11.2 SW 1021.0 1.0 0.8 0.0
24-01-2020 13:08 5 84 3.5 1019.5 6.1 9.7 SW 1020.9 1.1 3.5 0.0
24-01-2020 13:13 5 84 3.6 1019.5 8.6 9.7 S 1020.9 1.2 1.0 0.0
24-01-2020 13:18 5 84 3.7 1019.5 5.0 7.2 SW 1020.9 1.3 3.7 0.0
24-01-2020 13:23 5 84 3.7 1019.6 8.6 11.2 W 1021.0 1.3 1.1 0.0
24-01-2020 13:28 5 84 3.7 1019.6 8.6 11.2 SW 1021.0 1.3 1.1 0.0
24-01-2020 13:33 5 83 3.8 1019.4 7.2 8.6 W 1020.8 1.2 2.4 0.0
24-01-2020 13:38 5 83 3.9 1019.4 8.6 12.2 SW 1020.8 1.3 1.4 0.0
24-01-2020 13:43 5 83 3.9 1019.3 6.1 7.2 W 1020.7 1.3 3.9 0.0
24-01-2020 13:48 5 83 3.9 1019.2 6.1 8.6 W 1020.6 1.3 3.9 0.0
24-01-2020 13:53 5 83 3.9 1019.0 12.2 18.4 W 1020.4 1.3 -0.9 0.0
24-01-2020 13:58 5 83 3.9 1019.0 8.6 12.2 SW 1020.4 1.3 1.4 0.0
24-01-2020 14:03 5 83 3.9 1018.8 8.6 12.2 SWW 1020.2 1.3 1.4 0.0
24-01-2020 14:08 5 83 3.9 1018.8 8.6 12.2 SWW 1020.2 1.3 1.4 0.0
24-01-2020 14:13 5 82 3.7 1018.6 8.6 12.2 SSW 1020.0 0.9 1.1 0.0
24-01-2020 14:18 5 83 3.6 1018.5 7.2 9.7 SW 1019.9 1.0 2.2 0.0
24-01-2020 14:23 5 83 3.7 1018.6 9.7 14.8 SW 1020.0 1.1 0.4 0.0
24-01-2020 14:28 5 83 3.7 1018.6 8.6 12.2 NW 1020.0 1.1 1.1 0.0
24-01-2020 14:33 5 83 3.6 1018.7 11.2 14.8 W 1020.1 1.0 -0.6 0.0
24-01-2020 14:38 5 83 3.6 1018.7 12.2 17.3 SWW 1020.1 1.0 -1.2 0.0
24-01-2020 14:43 5 83 3.5 1018.7 15.8 20.9 S 1020.1 0.9 -3.1 0.0
24-01-2020 14:48 5 83 3.5 1018.5 12.2 15.8 S 1019.9 0.9 -1.4 0.0
24-01-2020 14:53 5 83 3.5 1018.7 11.2 13.3 SW 1020.1 0.9 -0.7 0.0
24-01-2020 14:58 5 83 3.5 1018.7 13.3 17.3 SW 1020.1 0.9 -1.9 0.0
24-01-2020 15:03 5 83 3.5 1018.8 12.2 13.3 SW 1020.2 0.9 -1.4 0.0
24-01-2020 15:08 5 83 3.6 1018.5 12.2 15.8 SW 1019.9 1.0 -1.2 0.0
24-01-2020 15:13 5 83 3.6 1018.7 8.6 11.2 SW 1020.1 1.0 1.0 0.0
24-01-2020 15:18 5 83 3.7 1018.7 8.6 11.2 NW 1020.1 1.1 1.1 0.0
24-01-2020 15:23 5 83 3.7 1018.5 11.2 13.3 SSW 1019.9 1.1 -0.5 0.0
24-01-2020 15:28 5 83 3.7 1018.6 11.2 14.8 SW 1020.0 1.1 -0.5 0.0
24-01-2020 15:33 5 83 3.7 1018.5 11.2 17.3 SWW 1019.9 1.1 -0.5 0.0
24-01-2020 15:38 5 82 3.7 1018.5 9.7 13.3 SW 1019.9 0.9 0.4 0.0
24-01-2020 15:43 5 82 3.7 1018.6 13.3 19.4 SW 1020.0 0.9 -1.7 0.0
24-01-2020 15:48 5 82 3.6 1018.6 12.2 14.8 W 1020.0 0.8 -1.2 0.0
24-01-2020 15:53 5 82 3.5 1018.5 13.3 18.4 SW 1019.9 0.7 -1.9 0.0
24-01-2020 15:58 5 82 3.4 1018.5 19.4 23.4 SW 1019.9 0.6 -4.7 0.0
24-01-2020 16:03 5 82 3.4 1018.4 14.8 20.9 SW 1019.8 0.6 -2.8 0.0
24-01-2020 16:08 5 82 3.4 1018.5 14.8 20.9 SW 1019.9 0.6 -2.8 0.0
24-01-2020 16:13 5 82 3.3 1018.5 14.8 19.4 NWW 1019.9 0.5 -2.9 0.0
24-01-2020 16:18 5 83 3.3 1018.5 12.2 14.8 SW 1019.9 0.7 -1.6 0.0
24-01-2020 16:23 5 83 3.3 1018.3 14.8 19.4 SW 1019.7 0.7 -2.9 0.0
24-01-2020 16:28 5 83 3.2 1018.3 15.8 20.9 SW 1019.7 0.6 -3.5 0.0
24-01-2020 16:33 5 83 3.2 1018.5 8.6 12.2 SW 1019.9 0.6 0.6 0.0
24-01-2020 16:38 5 83 3.2 1018.5 12.2 15.8 SW 1019.9 0.6 -1.7 0.0
24-01-2020 16:43 5 83 3.2 1018.7 13.3 17.3 SW 1020.1 0.6 -2.3 0.0
24-01-2020 16:48 5 83 3.2 1018.5 12.2 14.8 SW 1019.9 0.6 -1.7 0.0
24-01-2020 16:53 5 83 3.2 1018.5 9.7 13.3 W 1019.9 0.6 -0.2 0.0
24-01-2020 16:58 5 83 3.2 1018.7 9.7 13.3 SW 1020.1 0.6 -0.2 0.0
24-01-2020 17:03 5 83 3.2 1018.6 12.2 14.8 W 1020.0 0.6 -1.7 0.0
24-01-2020 17:08 5 83 3.2 1018.5 12.2 18.4 SW 1019.9 0.6 -1.7 0.0
24-01-2020 17:13 5 83 3.2 1018.7 11.2 12.2 SWW 1020.1 0.6 -1.1 0.0
24-01-2020 17:18 5 83 3.2 1018.6 14.8 18.4 NNW 1020.0 0.6 -3.0 0.0
24-01-2020 17:23 5 83 3.2 1018.6 12.2 17.3 W 1020.0 0.6 -1.7 0.0
24-01-2020 17:28 5 83 3.2 1018.6 12.2 14.8 SW 1020.0 0.6 -1.7 0.0
24-01-2020 17:33 5 83 3.2 1018.6 11.2 13.3 SW 1020.0 0.6 -1.1 0.0
24-01-2020 17:38 5 83 3.2 1018.5 11.2 14.8 W 1019.9 0.6 -1.1 0.0
24-01-2020 17:43 5 83 3.2 1018.6 9.7 11.2 SWW 1020.0 0.6 -0.2 0.0
24-01-2020 17:48 5 83 3.2 1018.5 12.2 17.3 SWW 1019.9 0.6 -1.7 0.0
24-01-2020 17:53 5 83 3.2 1018.5 11.2 13.3 W 1019.9 0.6 -1.1 0.0
24-01-2020 17:58 5 83 3.2 1018.7 12.2 15.8 SW 1020.1 0.6 -1.7 0.0
24-01-2020 18:03 5 83 3.2 1018.7 12.2 14.8 W 1020.1 0.6 -1.7 0.0
24-01-2020 18:08 5 83 3.2 1018.7 12.2 14.8 W 1020.1 0.6 -1.7 0.0
24-01-2020 18:13 5 83 3.2 1018.7 8.6 14.8 SW 1020.1 0.6 0.6 0.0
24-01-2020 18:18 5 83 3.2 1018.6 12.2 14.8 W 1020.0 0.6 -1.7 0.0
24-01-2020 18:23 5 83 3.2 1018.6 12.2 13.3 W 1020.0 0.6 -1.7 0.0
24-01-2020 18:28 5 83 3.2 1018.7 11.2 13.3 SW 1020.1 0.6 -1.1 0.0
24-01-2020 18:33 5 83 3.3 1018.7 11.2 12.2 SW 1020.1 0.7 -1.0 0.0
24-01-2020 18:38 5 83 3.3 1018.8 12.2 14.8 SW 1020.2 0.7 -1.6 0.0
24-01-2020 18:43 5 83 3.3 1018.7 9.7 12.2 SW 1020.1 0.7 0.0 0.0
24-01-2020 18:48 5 84 3.3 1018.7 9.7 12.2 S 1020.1 0.9 0.0 0.0
24-01-2020 18:53 5 84 3.3 1018.7 14.8 19.4 SW 1020.1 0.9 -2.9 0.0
24-01-2020 18:58 5 84 3.3 1018.8 13.3 19.4 SW 1020.2 0.9 -2.2 0.0
24-01-2020 19:03 5 84 3.3 1018.8 14.8 17.3 W 1020.2 0.9 -2.9 0.0
24-01-2020 19:08 5 84 3.3 1018.8 9.7 12.2 SW 1020.2 0.9 0.0 0.0
24-01-2020 19:13 5 83 3.3 1018.7 14.8 19.4 SW 1020.1 0.7 -2.9 0.0
24-01-2020 19:18 5 83 3.3 1018.6 11.2 12.2 SW 1020.0 0.7 -1.0 0.0
24-01-2020 19:23 5 83 3.3 1018.7 12.2 18.4 W 1020.1 0.7 -1.6 0.0
24-01-2020 19:28 5 83 3.3 1018.6 14.8 17.3 W 1020.0 0.7 -2.9 0.0
24-01-2020 19:33 5 83 3.3 1018.7 12.2 14.8 W 1020.1 0.7 -1.6 0.0
24-01-2020 19:38 5 83 3.3 1018.5 12.2 18.4 SWW 1019.9 0.7 -1.6 0.0
24-01-2020 19:43 5 83 3.4 1018.6 15.8 20.9 W 1020.0 0.8 -3.3 0.0
24-01-2020 19:48 5 83 3.4 1018.6 13.3 15.8 S 1020.0 0.8 -2.1 0.0
24-01-2020 19:53 5 83 3.4 1018.5 15.8 19.4 SW 1019.9 0.8 -3.3 0.0
24-01-2020 19:58 5 83 3.4 1018.8 12.2 13.3 SW 1020.2 0.8 -1.5 0.0
24-01-2020 20:03 5 83 3.4 1018.7 11.2 14.8 SW 1020.1 0.8 -0.8 0.0
24-01-2020 20:08 5 83 3.4 1018.7 11.2 14.8 SW 1020.1 0.8 -0.8 0.0
24-01-2020 20:13 5 83 3.4 1018.6 12.2 15.8 W 1020.0 0.8 -1.5 0.0
24-01-2020 20:18 5 83 3.4 1018.6 11.2 15.8 SW 1020.0 0.8 -0.8 0.0
24-01-2020 20:23 5 83 3.5 1018.7 12.2 13.3 SW 1020.1 0.9 -1.4 0.0
24-01-2020 20:28 5 83 3.5 1018.6 9.7 12.2 SW 1020.0 0.9 0.2 0.0
24-01-2020 20:33 5 83 3.5 1018.5 8.6 11.2 SW 1019.9 0.9 0.9 0.0
24-01-2020 20:38 5 83 3.5 1018.5 14.8 18.4 SW 1019.9 0.9 -2.6 0.0
24-01-2020 20:43 5 83 3.5 1018.4 15.8 20.9 W 1019.8 0.9 -3.1 0.0
24-01-2020 20:48 5 83 3.5 1018.3 11.2 13.3 W 1019.7 0.9 -0.7 0.0
24-01-2020 20:53 5 83 3.5 1018.4 12.2 15.8 SW 1019.8 0.9 -1.4 0.0
24-01-2020 20:58 5 83 3.5 1018.5 9.7 13.3 SWW 1019.9 0.9 0.2 0.0
24-01-2020 21:03 5 83 3.5 1018.5 14.8 18.4 W 1019.9 0.9 -2.6 0.0
24-01-2020 21:08 5 83 3.6 1018.6 12.2 14.8 SW 1020.0 1.0 -1.2 0.0
24-01-2020 21:13 5 83 3.6 1018.5 13.3 18.4 SW 1019.9 1.0 -1.8 0.0
24-01-2020 21:18 5 83 3.6 1018.5 12.2 14.8 SW 1019.9 1.0 -1.2 0.0
24-01-2020 21:23 5 83 3.6 1018.6 14.8 17.3 SW 1020.0 1.0 -2.5 0.0
24-01-2020 21:28 5 83 3.5 1018.5 15.8 19.4 W 1019.9 0.9 -3.1 0.0
24-01-2020 21:33 5 83 3.6 1018.6 11.2 13.3 SW 1020.0 1.0 -0.6 0.0
24-01-2020 21:38 5 83 3.6 1018.6 9.7 12.2 W 1020.0 1.0 0.3 0.0
24-01-2020 21:43 5 83 3.5 1018.6 13.3 17.3 SSW 1020.0 0.9 -1.9 0.0
24-01-2020 21:48 5 83 3.5 1018.6 12.2 17.3 SW 1020.0 0.9 -1.4 0.0
24-01-2020 21:53 5 83 3.5 1018.6 11.2 14.8 SW 1020.0 0.9 -0.7 0.0
24-01-2020 21:58 5 83 3.5 1018.7 14.8 18.4 SW 1020.1 0.9 -2.6 0.0
24-01-2020 22:03 5 83 3.5 1018.7 9.7 13.3 W 1020.1 0.9 0.2 0.0
24-01-2020 22:08 5 83 3.5 1018.8 9.7 13.3 W 1020.2 0.9 0.2 0.0
24-01-2020 22:13 5 83 3.5 1018.7 13.3 17.3 SW 1020.1 0.9 -1.9 0.0
24-01-2020 22:18 5 83 3.5 1018.6 11.2 17.3 W 1020.0 0.9 -0.7 0.0
24-01-2020 22:23 5 83 3.5 1018.6 12.2 15.8 SW 1020.0 0.9 -1.4 0.0
24-01-2020 22:28 5 83 3.5 1018.4 14.8 19.4 SW 1019.8 0.9 -2.6 0.0
24-01-2020 22:33 5 83 3.5 1018.4 12.2 14.8 SW 1019.8 0.9 -1.4 0.0
24-01-2020 22:38 5 83 3.5 1018.5 11.2 14.8 W 1019.9 0.9 -0.7 0.0
24-01-2020 22:43 5 83 3.5 1018.4 11.2 13.3 SWW 1019.8 0.9 -0.7 0.0
24-01-2020 22:48 5 83 3.5 1018.4 11.2 13.3 W 1019.8 0.9 -0.7 0.0
24-01-2020 22:53 5 83 3.5 1018.6 14.8 18.4 SW 1020.0 0.9 -2.6 0.0
24-01-2020 22:58 5 83 3.5 1018.4 9.7 15.8 W 1019.8 0.9 0.2 0.0
24-01-2020 23:03 5 83 3.6 1018.4 9.7 14.8 W 1019.8 1.0 0.3 0.0
24-01-2020 23:08 5 83 3.6 1018.5 13.3 15.8 SWW 1019.9 1.0 -1.8 0.0
24-01-2020 23:13 5 83 3.6 1018.5 15.8 20.9 SW 1019.9 1.0 -3.0 0.0
24-01-2020 23:18 5 83 3.6 1018.5 13.3 17.3 SW 1019.9 1.0 -1.8 0.0
24-01-2020 23:23 5 83 3.6 1018.6 9.7 12.2 SW 1020.0 1.0 0.3 0.0
24-01-2020 23:28 5 83 3.6 1018.5 9.7 13.3 SWW 1019.9 1.0 0.3 0.0
24-01-2020 23:33 5 83 3.6 1018.6 14.8 18.4 SSW 1020.0 1.0 -2.5 0.0
24-01-2020 23:38 5 83 3.6 1018.5 12.2 15.8 SW 1019.9 1.0 -1.2 0.0
24-01-2020 23:43 5 83 3.6 1018.6 12.2 14.8 SW 1020.0 1.0 -1.2 0.0
24-01-2020 23:48 5 84 3.6 1018.5 11.2 13.3 SWW 1019.9 1.2 -0.6 0.0
24-01-2020 23:53 5 84 3.6 1018.5 12.2 18.4 W 1019.9 1.2 -1.2 0.0
24-01-2020 23:58 5 84 3.6 1018.6 9.7 11.2 SW 1020.0 1.2 0.3 0.0

 

Tagesdaten vom DWD                                               Tabelle: 07 : 00 UHR

STATIONHÖHELUFTD.TEMP.T-MinT-MaxU%RR1RR12SSSDDFFFXWetter+WolkenBöen
UFS TW Ems 0 1021.8 6.2 6.2 7.2 101 ---- --- --- W 25 --- --- ---
UFS Deutsche Bucht 0 ------ --- --- --- --- ---- --- --- -- --- --- --- ---
Helgoland 4 1021.5 4.9 4.7 5.9 97 0.0 0 0 SW 25 38 --- ---
List/Sylt 26 1020.0 6.2 6.0 6.5 96 0.3 1 0 W 18 32 leichter Regen ---
Schleswig 43 1021.0 3.4 3.4 4.4 100 0.0 1 0 SW 13 29 Nebel ---
Leuchtturm Kiel 5 1020.8 3.0 3.0 4.5 97 ---- --- --- SW 39 47 --- ---
Kiel 27 1021.2 3.0 3.0 4.4 99 0.0 0 0 SW 17 26 Dunst oder flacher Nebel ---
Fehmarn 3 1020.8 3.5 3.5 5.1 95 0.0 0 0 SW 22 37 --- ---
Arkona 42 1019.8 3.2 3.1 4.5 98 0.1 1 0 SW 34 46 --- ---
Norderney 11 1022.4 3.3 3.1 4.8 99 0.0 0 0 SW 18 27 --- ---
Leuchtt. Alte Weser 32 1021.7 1.8 1.7 4.2 100 ---- --- --- SW 29 --- --- ---
Cuxhaven 5 1022.1 2.0 2.0 4.1 100 0.0 0 0 SW 17 25   ---
Hamburg-Flh. 11 ------ --- --- --- --- ---- --- --- -- --- --- --- ---
Schwerin 59 1022.1 -0.3 -0.4 4.6 93 0.0 0 --- SW 12 17 Dunst oder flacher Nebel ---
Rostock 4 1021.3 2.4 2.2 5.4 93 0.0 0 0 SW 10 24 Dunst oder flacher Nebel ---
Greifswald 2 1021.2 3.2 3.2 5.1 85 0.0 0 0 SW 16 30 bedeckt ---
Emden 0 1022.9 1.4 1.1 3.5 99 0.0 0 0 SW 11 23 --- ---
Bremen-Flh. 5 1023.3 -0.6 -3.6 2.2 100 0.0 0 0 SW 9 13 Nebel ---
Lüchow 17 ------ --- --- --- --- ---- --- --- -- --- --- --- ---
Marnitz 81 1022.9 0.1 -0.2 4.3 93 0.0 0 0 W 5 15 Dunst oder flacher Nebel ---
Waren 70 1022.5 1.5 1.5 4.5 90 0.0 0 0 SW 8 13 --- ---
Neuruppin 38 1023.2 -1.6 -1.7 3.7 96 0.0 0 0 NW 3 7 --- ---
Angermünde 56 1022.9 -0.3 -0.3 3.8 90 0.0 0 0 SW 6 12 wolkenlos ---
Münster/Osnabr.-Flh. 48 1024.0 -0.3 -3.9 1.9 98 0.0 0 0 SO 6 9 Dunst oder flacher Nebel ---
Hannover-Flh. 59 1023.6 -2.8 -3.8 2.4 98 0.0 0 0 NW 5 11 Dunst oder flacher Nebel ---
Magdeburg 76 1023.3 -4.0 -4.0 1.1 93 0.0 0 0 S 5 7 Dunst oder flacher Nebel ---
Potsdam 81 1023.5 -2.6 -2.7 2.6 92 0.0 0 0 S 14 18 gering bewölkt ---
Berlin-Tegel 37 1023.3 -2.6 -2.6 4.1 95 0.0 0 0 S 4 5 wolkenlos ---
Berlin-Tempelhof 48 1023.5 -1.2 --- --- 91 0.0 --- --- SW 4 10 --- ---
Berlin-Dahlem 51 1023.4 -2.3 -2.5 3.8 --- ---- 0 0 S 7 --- gering bewölkt ---
Lindenberg 91 1024.0 -3.3 -3.4 3.2 97 0.0 0 0 SW 9 13 Dunst oder flacher Nebel ---
Düsseldorf-Flh. 45 1024.6 0.8 -2.1 2.7 86 0.0 0 0 S 24 31 bedeckt ---
Essen 150 1024.4 -0.4 -0.9 2.1 90 0.0 0 0 S 13 27 --- ---
Kahler Asten 839 ------ 4.1 1.2 4.8 46 0.0 0 3 SW 13 16 wolkenlos ---
Bad Lippspringe 157 1024.5 -0.2 -4.0 0.8 96 0.0 0 0 S 6 9 Dunst oder flacher Nebel ---
Fritzlar 174 1025.5 -0.4 -4.3 -0.3 89 ---- 0 0 SW 11 --- bedeckt ---
Brocken 1142 ------ 2.5 1.3 4.1 30 ---- --- --- W 26 27 wolkenlos ---
Leipzig-Flh. 142 1024.7 -3.1 -3.8 0.0 92 0.0 0 0 SW 13 21 wolkenlos ---
Dresden-Flh. 227 1025.0 -2.4 -4.8 0.5 84 0.0 0 0 SO 18 22 wolkenlos ---
Cottbus 69 1024.4 -4.3 -6.0 3.0 95 0.0 0 0 SW 7 10 Dunst oder flacher Nebel ---
Görlitz 238 1025.0 -1.5 -1.6 0.5 85 0.0 0 0 SW 16 25 wolkenlos ---
Aachen 231 1024.7 -1.1 -1.3 1.1 92 0.0 0 0 SW 5 13 Dunst oder flacher Nebel ---
Nürburg 485 1025.5 -3.0 -3.0 -1.5 99 0.0 0 0 S 12 18 gefrierender Nebel ---
Köln/Bonn-Flh. 92 1025.1 0.0 -2.5 2.1 85 0.0 0 0 SO 7 15 bedeckt ---
Gießen/Wettenberg 203 1026.0 -0.6 -1.7 0.0 86 0.0 0 0 S 8 12 Dunst oder flacher Nebel ---
Wasserkuppe 921 ------ 0.6 -2.9 0.8 52 0.0 0 2 W 3 8 wolkenlos ---
Meiningen 450 1026.8 -4.0 -4.9 -1.4 96 0.0 0 1 SO 8 11 Dunst oder flacher Nebel ---
Erfurt 316 1025.5 -5.7 -6.6 0.6 94 0.0 0 0 W 12 17 Nebel ---
Gera 311 1025.1 -2.5 -3.5 -1.1 86 0.0 0 0 S 18 25 wolkenlos ---
Fichtelberg 1213 ------ 1.2 -1.1 4.7 10 ---- --- 16 W 15 16 wolkenlos ---
Trier 265 1026.1 -1.0 -1.8 -0.3 88 0.0 0 0 SW 5 12 Dunst oder flacher Nebel ---
Hahn-Flh. 497 1025.7 -2.9 -3.1 -1.4 98 0.0 0 0 SO 14 19 --- ---
Frankfurt/M-Flh. 112 1026.3 0.4 0.3 1.6 85 0.0 0 0 S 9 15 bedeckt ---
OF-Wetterpark 119 1026.3 0.3 0.1 1.8 88 0.0 0 0 S 8 13 Dunst oder flacher Nebel ---
Würzburg 268 1027.2 -0.8 -2.4 0.4 88 0.0 0 0 SW 4 15 Dunst oder flacher Nebel ---
Bamberg 239 1027.3 -2.7 -5.9 -1.9 94 0.0 0 0 - 0 4 Dunst oder flacher Nebel ---
Hof 567 1027.0 -4.5 -5.5 -1.1 93 0.0 0 0 S 8 15 --- ---
Weiden 438 1028.2 -5.0 -5.7 -0.6 95 0.0 0 0 - 0 4 --- ---
Saarbrücken-Flh. 320 1026.2 -1.5 -1.6 -0.4 93 0.0 0 0 O 6 9 Dunst oder flacher Nebel ---
Karlsruhe-Rheinst. 116 1026.8 -1.2 -1.3 1.4 86 0.0 0 0 W 3 8 --- ---
Mannheim 96 1026.6 0.2 0.2 1.8 87 0.0 0 0 SO 10 14 Dunst oder flacher Nebel ---
Stuttgart-Flh. 371 1027.6 -4.8 -4.8 -1.4 94 0.0 0 0 O 2 4 bewölkt ---
Öhringen 276 1027.0 -0.7 -0.9 0.5 83 0.0 0 0 SO 5 8 --- ---
Nürnberg-Flh. 314 1027.5 -2.7 -5.2 -1.6 93 0.0 0 0 O 8 13 Dunst oder flacher Nebel ---
Regensburg 366 1027.8 -2.8 -5.5 -1.1 95 0.0 0 0 SO 3 8 Dunst oder flacher Nebel ---
Straubing 351 1027.6 -1.4 -5.8 -1.3 98 0.0 0 0 SO 6 8 Dunst oder flacher Nebel ---
Großer Arber 1436 ------ 3.0 2.6 5.6 34 0.0 0 52 SW 34 42 wolkenlos ---
Lahr 155 1026.9 -3.8 -4.0 -0.9 91 0.0 0 0 N 3 9 Dunst oder flacher Nebel ---
Freudenstadt 797 ------ 1.8 -5.4 2.0 81 0.0 0 0 W 18 29 wolkenlos ---
Stötten 734 1027.6 -5.2 -6.2 -3.3 95 0.0 0 2 SW 6 13 wolkenlos ---
Augsburg 462 1027.3 -2.1 -2.1 -0.3 91 0.0 0 0 W 9 17 Dunst oder flacher Nebel ---
München-Flh. 444 1027.8 -2.4 -6.2 -1.0 93 0.0 0 0 SW 10 21 stark bewölkt ---
Fürstenzell 476 1028.1 -2.7 -4.1 -0.2 99 0.0 0 0 O 2 10 gefrierender Nebel ---
Feldberg/Schw. 1486 ------ 3.2 0.2 6.9 68 0.0 0 63 W 37 50 wolkenlos Windböen
Konstanz 443 1028.5 -2.1 -2.1 -1.1 91 0.0 0 0 W 3 7 Dunst oder flacher Nebel ---
Kempten 705 1028.3 -4.3 -7.4 -4.3 89 0.0 0 0 O 10 13 wolkenlos ---
Oberstdorf 806 ------ -4.6 -10.2 -3.6 99 0.0 0 4 S 4 12   ---
Zugspitze 2960 ------ -4.3 -4.8 0.1 31 ---- --- 170 SW 33 39 wolkenlos ---
Hohenpeißenberg 977 ------ 4.0 -6.5 4.1 45 0.0 0 4 W 36 48 wolkenlos ---

                                                                                              Tabelle: 19 : 00 UHR   

STATIONHÖHELUFTD.TEMP.T-MinT-MaxU%RR1RR12SSSDDFFFXWetter+WolkenBöen
UFS TW Ems 0 1019.8 7.3 6.2 7.9 95 ---- --- --- W 22 --- --- ---
UFS Deutsche Bucht 26 ------ --- --- --- --- ---- --- --- -- --- --- --- ---
Helgoland 4 1019.7 5.3 4.9 5.8 96 0.0 0 0 SW 28 42 --- ---
List/Sylt 26 1018.2 6.0 5.9 6.7 96 0.1 0 0 W 20 28 leichter Regen ---
Schleswig 43 1019.0 4.5 3.4 5.2 99 0.1 1 0 SW 19 37 Regen ---
Leuchtturm Kiel 5 1018.6 4.5 2.9 4.8 94 ---- --- --- SW 39 47 --- ---
Kiel 27 1019.2 4.5 3.0 4.8 97 0.0 0 0 SW 17 33 --- ---
Fehmarn 3 1018.5 4.7 3.4 4.9 95 0.0 0 0 SW 27 40 --- ---
Arkona 42 1017.2 4.1 3.1 4.3 98 0.0 0 0 W 43 55 Dunst oder flacher Nebel Windböen
Norderney 11 1021.0 4.0 3.2 4.2 96 0.0 0 0 SW 22 36 Regen ---
Leuchtt. Alte Weser 32 1020.3 3.5 1.6 3.7 100 ---- --- --- SW 36 --- --- ---
Cuxhaven 5 1020.6 3.4 1.6 4.0 98 0.0 0 0 SW 16 33 leichter Regen ---
Hamburg-Flh 11 1021.1 2.3 0.6 2.4 95 0.0 0 0 SW 17 24 leichter Regen ---
Schwerin 59 1020.9 1.4 -0.5 1.4 96 0.0 0 --- SW 20 29 leichter Regen ---
Rostock 4 1019.3 3.4 2.0 4.6 92 0.0 0 0 SW 14 28 leichter Regen ---
Greifswald 2 1018.7 3.2 2.7 4.4 94 0.0 0 0 SW 16 28 leichter Regen ---
Emden 0 1021.5 3.4 1.4 3.4 94 0.0 0 0 S 15 30 --- ---
Bremen-Flh. 5 1022.1 1.9 -0.6 2.1 95 ---- 0 0 SW 11 18 leichter Regen ---
Lüchow 17 ------ --- --- --- --- ---- --- --- -- --- --- --- ---
Marnitz 81 1021.2 0.5 -0.3 3.2 98 0.1 0 0 W 16 30 --- ---
Waren 70 1020.8 1.1 0.3 4.8 98 0.0 0 0 SW 10 23 leichter Regen ---
Neuruppin 38 1021.9 -0.6 -2.4 3.4 97 0.0 0 0 SW 12 23 --- ---
Angermünde 56 1020.7 2.2 -1.2 4.7 85 0.0 0 0 SW 16 28 --- ---
Münster/Osnabr.-Flh. 48 1023.7 0.7 -0.3 0.7 97 0.0 0 0 W 8 15 leichter Regen ---
Hannover-Flh. 59 1023.4 -0.2 -3.4 0.3 93 0.0 0 0 W 12 22 Dunst oder flacher Nebel ---
Magdeburg 76 1023.0 -0.6 -3.9 3.0 93 0.0 0 0 N 5 10 Dunst oder flacher Nebel ---
Potsdam 81 1022.3 -0.2 -3.2 3.0 88 0.0 0 0 W 18 30 Dunst oder flacher Nebel ---
Berlin-Tegel 37 1022.3 0.4 -2.7 3.7 91 0.0 0 0 W 13 26 Dunst oder flacher Nebel ---
Berlin-Tempelhof 48 1022.2 0.7 -2.5 4.0 87 0.0 0 --- NW 19 28 --- ---
Berlin-Dahlem 51 1022.3 0.5 -3.2 3.9 --- ---- 0 0 NW 14 --- Dunst oder flacher Nebel ---
Lindenberg 91 1021.7 0.3 -3.6 2.7 90 0.0 0 0 W 13 24 gering bewölkt ---
Düsseldorf-Flh. 45 1024.0 0.4 0.3 1.4 86 0.0 0 0 W 12 17 bedeckt ---
Essen 150 1023.8 0.0 -0.5 0.1 90 0.0 0 0 SW 6 17 Dunst oder flacher Nebel ---
Kahler Asten 839 ------ 2.8 -1.1 5.4 74 0.0 0 3 W 13 18 --- ---
Bad Lippspringe 157 1024.2 -0.5 -1.1 -0.2 88 0.0 0 0 NW 8 14 --- ---
Fritzlar 174 1024.2 -0.7 -0.8 -0.2 89 ---- 0 0 SW 14 --- Dunst oder flacher Nebel ---
Brocken 1142 ------ 1.5 1.5 6.0 --- ---- --- --- W 31 37 --- ---
Leipzig-Flh. 142 1022.4 -1.5 -3.1 2.5 92 0.0 0 0 SW 14 17 wolkenlos ---
Dresden-Flh. 227 1023.4 -1.2 -4.1 4.4 82 0.0 0 0 S 4 13 gering bewölkt ---
Cottbus 69 1021.4 -0.1 -4.3 4.1 86 0.0 0 0 SW 9 14 --- ---
Görlitz 238 1023.5 -2.0 -2.0 1.0 86 0.0 0 0 SW 20 29 wolkenlos ---
Aachen 231 1023.5 -1.4 -1.5 1.1 89 0.0 0 0 NW 5 8 Dunst oder flacher Nebel ---
Nürburg 485 1023.8 -1.2 -3.0 1.2 100 0.0 0 0 W 5 19 gefrierender Nebel ---
Köln/Bonn-Flh. 92 1024.0 0.7 -0.1 1.0 82 0.0 0 0 O 8 13 bedeckt ---
Gießen/Wettenberg 203 1024.4 -0.3 -1.2 0.0 82 0.0 0 0 S 10 16 Dunst oder flacher Nebel ---
Wasserkuppe 921 ------ 1.9 -1.2 6.0 48 0.0 --- --- W 13 20 --- ---
Meiningen 450 1025.2 -2.8 -4.0 -2.5 98 0.0 0 1 S 10 18 Dunst oder flacher Nebel ---
Erfurt 316 1023.7 -2.6 -5.9 2.5 92 0.0 0 0 W 12 19 wolkenlos ---
Gera 311 1023.4 -1.3 -2.8 2.0 86 0.0 0 0 SW 19 35 --- ---
Fichtelberg 1213 ------ 0.5 -0.7 6.3 55 ---- --- 16 NW 16 24 --- ---
Trier 265 1024.6 0.8 -1.1 1.8 92 0.0 0 0 NW 3 10 Dunst oder flacher Nebel ---
Hahn-Flh. 497 1024.6 -1.6 -3.7 -0.5 99 0.0 0 0 SW 7 11 --- ---
Frankfurt/M-Flh. 112 1024.6 0.5 0.2 1.1 89 0.0 0 0 S 5 8 Dunst oder flacher Nebel ---
OF-Wetterpark 119 1024.5 0.8 0.0 1.4 91 0.0 0 0 W 4 8 Dunst oder flacher Nebel ---
Würzburg 268 1025.2 1.0 -0.9 1.2 87 0.0 0 0 SW 2 6 Dunst oder flacher Nebel ---
Bamberg 239 1025.3 -0.2 -2.6 0.0 87 0.0 0 0 SO 3 5 Dunst oder flacher Nebel ---
Hof 567 1025.2 -3.4 -4.5 -2.5 96 0.0 0 0 SW 8 20 Dunst oder flacher Nebel ---
Weiden 438 1026.0 -1.9 -5.0 -1.8 92 0.0 0 0 SO 5 9 Dunst oder flacher Nebel ---
Saarbrücken-Flh. 320 1024.6 -0.5 -2.1 3.1 92 0.0 0 0 S 5 8 Dunst oder flacher Nebel ---
Karlsruhe-Rheinst. 116 1024.6 -0.5 -1.3 5.0 89 0.0 0 0 SO 3 4 --- ---
Mannheim 96 1024.6 -0.4 -0.5 3.0 92 0.0 0 0 NW 9 14 Dunst oder flacher Nebel ---
Stuttgart-Flh. 371 1024.2 1.5 -6.0 5.7 84 0.0 0 0 W 10 11 gering bewölkt ---
Öhringen 276 1024.3 1.1 -0.8 5.4 86 0.0 0 0 SO 5 6 --- ---
Nürnberg-Flh. 314 1025.4 -2.0 -2.7 1.2 91 0.0 0 0 O 3 5 gering bewölkt ---
Regensburg 366 1025.9 -1.4 -2.8 0.7 93 0.0 0 0 SO 4 10 Dunst oder flacher Nebel ---
Straubing 351 1026.1 -1.8 -2.8 0.6 100 0.0 0 0 O 4 9 Dunst oder flacher Nebel ---
Großer Arber 1436 ------ 1.4 -0.9 3.8 52 0.0 0 50 W 33 46 wolkenlos ---
Lahr 155 1024.2 0.3 -4.4 6.0 89 0.0 0 0 NW 4 5 Dunst oder flacher Nebel ---
Freudenstadt 797 ------ 3.1 1.3 8.8 85 0.0 0 0 SW 14 18 wolkenlos ---
Stötten 734 1023.4 4.5 -5.8 7.4 82 0.0 0 1 SW 9 14 wolkenlos ---
Augsburg 462 1024.9 -0.2 -4.5 7.6 98 0.0 0 0 SO 4 6 Dunst oder flacher Nebel ---
München-Flh. 444 1025.5 -0.4 -3.7 4.3 92 0.0 0 0 O 3 8 gering bewölkt ---
Fürstenzell 476 1026.1 -2.1 -2.7 0.0 95 0.0 0 0 O 5 9 Dunst oder flacher Nebel ---
Feldberg/Schw. 1486 ------ 4.5 1.7 4.6 59 0.0 0 62 N 14 15 wolkenlos ---
Konstanz 443 1025.8 -0.2 -2.2 2.1 91 0.0 0 0 - 0 5 Dunst oder flacher Nebel ---
Kempten 705 1025.1 0.7 -5.7 11.8 86 0.0 0 0 O 6 9 wolkenlos ---
Oberstdorf 806 ------ -0.4 -7.3 4.9 86 0.0 0 4 SO 4 12 wolkenlos ---
Zugspitze 2960 ------ -4.0 -4.9 -1.4 55 ---- --- --- S 18 24 --- ---
Hohenpeißenberg 977 ------ 5.5 2.8 9.0 66 0.0 0 1 SO 8 10 wolkenlos ---

 

  • Wetterzustand
  • Windrichtung und -geschwindigkeit
  • Luftdruck
  • relative Luftfeuchtigkeit
  • Sichtweite
  • Gesamtbedeckungsgrad
  • Niederschlag
  • Sonnenscheindauer

 Höhe:     m über NN
Luftd.:   auf Meereshöhe reduzierter Luftdruck in hPa
TEMP.:   Lufttemperatur in Grad Celsius
T-MIN:   Minimumtemperatur der Luft in 2m Höhe in Grad Celsius, von 18 UTC Vortag bis 06 UTC heute
T-MAX:  Maximumtemperatur der Luft in 2m Höhe in Grad Celsius, von 18 UTC Vortag bis 06 UTC heute
RR1:     Niederschlagsmenge, einstündig, mm ist gleich Liter pro
RR12:   Niederschlagsmenge, 12 stündig, 18 UTC Vortag bis 06 UTC heute in mm ist gleich Liter pro
SSS:     Gesamtschneehöhe
DD:      Windrichtung
FF:       Windgeschwindigkeit letztes 10-Minutenmittel in km/h
FX:       höchste Windspitze während der letzten Stunde in km/h
---:      Wert nicht vorhanden

 

2009-2020

Unwetterwarnungen

 

  Radarbild           

aktueller Radarfilm Deutschland

  Europa-Meteoalarm